sensor_id;sensor_type;location;lat;lon;timestamp;temperature;humidity
42037;DHT22;30340;52.004;5.908;2023-06-19T00:00:15;24.10;52.60
42037;DHT22;30340;52.004;5.908;2023-06-19T00:02:42;24.10;52.80
42037;DHT22;30340;52.004;5.908;2023-06-19T00:05:08;24.10;53.50
42037;DHT22;30340;52.004;5.908;2023-06-19T00:07:36;24.10;53.00
42037;DHT22;30340;52.004;5.908;2023-06-19T00:10:03;24.00;53.30
42037;DHT22;30340;52.004;5.908;2023-06-19T00:12:28;24.00;53.40
42037;DHT22;30340;52.004;5.908;2023-06-19T00:14:54;24.00;53.50
42037;DHT22;30340;52.004;5.908;2023-06-19T00:17:19;24.00;53.50
42037;DHT22;30340;52.004;5.908;2023-06-19T00:19:45;24.00;53.40
42037;DHT22;30340;52.004;5.908;2023-06-19T00:22:12;24.10;53.40
42037;DHT22;30340;52.004;5.908;2023-06-19T00:24:37;24.10;53.30
42037;DHT22;30340;52.004;5.908;2023-06-19T00:27:03;24.10;53.20
42037;DHT22;30340;52.004;5.908;2023-06-19T00:29:29;24.20;53.30
42037;DHT22;30340;52.004;5.908;2023-06-19T00:31:55;24.10;53.50
42037;DHT22;30340;52.004;5.908;2023-06-19T00:34:20;24.10;54.00
42037;DHT22;30340;52.004;5.908;2023-06-19T00:36:52;24.10;54.10
42037;DHT22;30340;52.004;5.908;2023-06-19T00:39:22;24.00;54.40
42037;DHT22;30340;52.004;5.908;2023-06-19T00:41:47;24.00;54.80
42037;DHT22;30340;52.004;5.908;2023-06-19T00:44:13;24.00;55.00
42037;DHT22;30340;52.004;5.908;2023-06-19T00:46:40;23.90;55.60
42037;DHT22;30340;52.004;5.908;2023-06-19T00:49:07;23.90;55.90
42037;DHT22;30340;52.004;5.908;2023-06-19T00:51:33;23.90;56.30
42037;DHT22;30340;52.004;5.908;2023-06-19T00:53:59;23.80;56.40
42037;DHT22;30340;52.004;5.908;2023-06-19T00:56:25;23.90;56.30
42037;DHT22;30340;52.004;5.908;2023-06-19T00:58:54;23.90;56.40
42037;DHT22;30340;52.004;5.908;2023-06-19T01:01:21;23.80;56.50
42037;DHT22;30340;52.004;5.908;2023-06-19T01:03:49;23.80;56.60
42037;DHT22;30340;52.004;5.908;2023-06-19T01:06:20;23.80;56.70
42037;DHT22;30340;52.004;5.908;2023-06-19T01:09:01;23.80;56.70
42037;DHT22;30340;52.004;5.908;2023-06-19T01:11:35;23.80;56.70
42037;DHT22;30340;52.004;5.908;2023-06-19T01:14:26;23.80;56.60
42037;DHT22;30340;52.004;5.908;2023-06-19T01:16:53;23.80;57.10
42037;DHT22;30340;52.004;5.908;2023-06-19T01:19:20;23.80;56.50
42037;DHT22;30340;52.004;5.908;2023-06-19T01:21:47;23.80;57.20
42037;DHT22;30340;52.004;5.908;2023-06-19T01:24:13;23.80;56.50
42037;DHT22;30340;52.004;5.908;2023-06-19T01:26:39;23.80;56.50
42037;DHT22;30340;52.004;5.908;2023-06-19T01:29:05;23.80;56.50
42037;DHT22;30340;52.004;5.908;2023-06-19T01:31:35;23.70;56.60
42037;DHT22;30340;52.004;5.908;2023-06-19T01:34:04;23.80;56.70
42037;DHT22;30340;52.004;5.908;2023-06-19T01:36:32;23.70;56.70
42037;DHT22;30340;52.004;5.908;2023-06-19T01:38:58;23.70;56.80
42037;DHT22;30340;52.004;5.908;2023-06-19T01:41:25;23.70;56.90
42037;DHT22;30340;52.004;5.908;2023-06-19T01:43:52;23.70;57.00
42037;DHT22;30340;52.004;5.908;2023-06-19T01:46:18;23.60;57.10
42037;DHT22;30340;52.004;5.908;2023-06-19T01:48:44;23.50;57.10
42037;DHT22;30340;52.004;5.908;2023-06-19T01:51:09;23.50;57.20
42037;DHT22;30340;52.004;5.908;2023-06-19T01:53:35;23.50;57.40
42037;DHT22;30340;52.004;5.908;2023-06-19T01:56:01;23.40;57.60
42037;DHT22;30340;52.004;5.908;2023-06-19T01:58:27;23.30;57.90
42037;DHT22;30340;52.004;5.908;2023-06-19T02:00:52;23.30;58.10
42037;DHT22;30340;52.004;5.908;2023-06-19T02:03:18;23.20;58.30
42037;DHT22;30340;52.004;5.908;2023-06-19T02:05:44;23.20;58.40
42037;DHT22;30340;52.004;5.908;2023-06-19T02:08:09;23.20;58.50
42037;DHT22;30340;52.004;5.908;2023-06-19T02:10:35;23.10;58.80
42037;DHT22;30340;52.004;5.908;2023-06-19T02:13:00;23.10;59.10
42037;DHT22;30340;52.004;5.908;2023-06-19T02:15:26;23.00;59.40
42037;DHT22;30340;52.004;5.908;2023-06-19T02:17:53;22.90;59.70
42037;DHT22;30340;52.004;5.908;2023-06-19T02:20:20;22.90;59.90
42037;DHT22;30340;52.004;5.908;2023-06-19T02:22:46;22.90;60.10
42037;DHT22;30340;52.004;5.908;2023-06-19T02:25:12;22.80;60.00
42037;DHT22;30340;52.004;5.908;2023-06-19T02:27:37;22.80;60.40
42037;DHT22;30340;52.004;5.908;2023-06-19T02:30:03;22.70;60.90
42037;DHT22;30340;52.004;5.908;2023-06-19T02:32:30;22.60;61.50
42037;DHT22;30340;52.004;5.908;2023-06-19T02:34:56;22.60;61.70
42037;DHT22;30340;52.004;5.908;2023-06-19T02:37:21;22.50;62.40
42037;DHT22;30340;52.004;5.908;2023-06-19T02:39:47;22.50;62.50
42037;DHT22;30340;52.004;5.908;2023-06-19T02:42:12;22.50;62.60
42037;DHT22;30340;52.004;5.908;2023-06-19T02:44:38;22.40;62.60
42037;DHT22;30340;52.004;5.908;2023-06-19T02:47:04;22.40;62.90
42037;DHT22;30340;52.004;5.908;2023-06-19T02:49:29;22.30;62.80
42037;DHT22;30340;52.004;5.908;2023-06-19T02:51:55;22.30;62.80
42037;DHT22;30340;52.004;5.908;2023-06-19T02:54:21;22.30;62.80
42037;DHT22;30340;52.004;5.908;2023-06-19T02:56:46;22.30;62.90
42037;DHT22;30340;52.004;5.908;2023-06-19T02:59:12;22.20;63.20
42037;DHT22;30340;52.004;5.908;2023-06-19T03:01:37;22.20;63.40
42037;DHT22;30340;52.004;5.908;2023-06-19T03:04:03;22.10;63.50
42037;DHT22;30340;52.004;5.908;2023-06-19T03:06:29;22.10;63.40
42037;DHT22;30340;52.004;5.908;2023-06-19T03:08:54;22.10;63.70
42037;DHT22;30340;52.004;5.908;2023-06-19T03:11:20;22.00;64.50
42037;DHT22;30340;52.004;5.908;2023-06-19T03:13:48;21.90;65.00
42037;DHT22;30340;52.004;5.908;2023-06-19T03:16:14;21.90;65.20
42037;DHT22;30340;52.004;5.908;2023-06-19T03:18:40;21.90;65.40
42037;DHT22;30340;52.004;5.908;2023-06-19T03:21:06;21.90;65.50
42037;DHT22;30340;52.004;5.908;2023-06-19T03:23:32;21.90;66.70
42037;DHT22;30340;52.004;5.908;2023-06-19T03:25:57;21.80;66.80
42037;DHT22;30340;52.004;5.908;2023-06-19T03:28:23;21.80;67.00
42037;DHT22;30340;52.004;5.908;2023-06-19T03:30:50;21.80;67.50
42037;DHT22;30340;52.004;5.908;2023-06-19T03:33:15;21.70;68.50
42037;DHT22;30340;52.004;5.908;2023-06-19T03:35:41;21.60;68.50
42037;DHT22;30340;52.004;5.908;2023-06-19T03:38:06;21.60;68.50
42037;DHT22;30340;52.004;5.908;2023-06-19T03:40:32;21.50;68.70
42037;DHT22;30340;52.004;5.908;2023-06-19T03:42:58;21.50;70.00
42037;DHT22;30340;52.004;5.908;2023-06-19T03:45:23;21.50;69.70
42037;DHT22;30340;52.004;5.908;2023-06-19T03:47:49;21.50;69.70
42037;DHT22;30340;52.004;5.908;2023-06-19T03:50:14;21.50;69.50
42037;DHT22;30340;52.004;5.908;2023-06-19T03:52:40;21.60;69.40
42037;DHT22;30340;52.004;5.908;2023-06-19T03:55:05;21.60;69.30
42037;DHT22;30340;52.004;5.908;2023-06-19T03:57:31;21.60;69.40
42037;DHT22;30340;52.004;5.908;2023-06-19T03:59:57;21.70;69.60
42037;DHT22;30340;52.004;5.908;2023-06-19T04:02:22;21.70;69.60
42037;DHT22;30340;52.004;5.908;2023-06-19T04:04:48;21.70;69.50
42037;DHT22;30340;52.004;5.908;2023-06-19T04:07:13;21.70;69.50
42037;DHT22;30340;52.004;5.908;2023-06-19T04:09:39;21.70;69.40
42037;DHT22;30340;52.004;5.908;2023-06-19T04:12:05;21.70;69.70
42037;DHT22;30340;52.004;5.908;2023-06-19T04:14:30;21.70;69.80
42037;DHT22;30340;52.004;5.908;2023-06-19T04:16:56;21.70;69.90
42037;DHT22;30340;52.004;5.908;2023-06-19T04:19:21;21.70;69.80
42037;DHT22;30340;52.004;5.908;2023-06-19T04:21:47;21.80;69.70
42037;DHT22;30340;52.004;5.908;2023-06-19T04:24:13;21.70;69.80
42037;DHT22;30340;52.004;5.908;2023-06-19T04:26:38;21.80;70.10
42037;DHT22;30340;52.004;5.908;2023-06-19T04:29:04;21.80;70.10
42037;DHT22;30340;52.004;5.908;2023-06-19T04:31:31;21.70;70.40
42037;DHT22;30340;52.004;5.908;2023-06-19T04:33:57;21.60;71.00
42037;DHT22;30340;52.004;5.908;2023-06-19T04:36:23;21.70;71.10
42037;DHT22;30340;52.004;5.908;2023-06-19T04:38:48;21.60;71.80
42037;DHT22;30340;52.004;5.908;2023-06-19T04:41:17;21.60;71.80
42037;DHT22;30340;52.004;5.908;2023-06-19T04:43:42;21.60;71.80
42037;DHT22;30340;52.004;5.908;2023-06-19T04:46:08;21.60;71.80
42037;DHT22;30340;52.004;5.908;2023-06-19T04:48:34;21.60;71.70
42037;DHT22;30340;52.004;5.908;2023-06-19T04:51:02;21.70;71.80
42037;DHT22;30340;52.004;5.908;2023-06-19T04:53:28;21.70;71.70
42037;DHT22;30340;52.004;5.908;2023-06-19T04:55:54;21.80;71.70
42037;DHT22;30340;52.004;5.908;2023-06-19T04:58:21;21.70;72.00
42037;DHT22;30340;52.004;5.908;2023-06-19T05:00:47;21.70;72.40
42037;DHT22;30340;52.004;5.908;2023-06-19T05:03:17;21.70;72.50
42037;DHT22;30340;52.004;5.908;2023-06-19T05:05:43;21.70;72.70
42037;DHT22;30340;52.004;5.908;2023-06-19T05:08:09;21.80;72.80
42037;DHT22;30340;52.004;5.908;2023-06-19T05:10:35;21.80;72.80
42037;DHT22;30340;52.004;5.908;2023-06-19T05:13:00;21.80;73.10
42037;DHT22;30340;52.004;5.908;2023-06-19T05:15:27;21.80;73.10
42037;DHT22;30340;52.004;5.908;2023-06-19T05:17:53;21.80;73.40
42037;DHT22;30340;52.004;5.908;2023-06-19T05:20:19;21.80;73.60
42037;DHT22;30340;52.004;5.908;2023-06-19T05:22:44;21.90;73.70
42037;DHT22;30340;52.004;5.908;2023-06-19T05:25:10;21.90;73.80
42037;DHT22;30340;52.004;5.908;2023-06-19T05:27:36;21.90;74.00
42037;DHT22;30340;52.004;5.908;2023-06-19T05:30:01;21.80;74.10
42037;DHT22;30340;52.004;5.908;2023-06-19T05:32:27;21.80;74.10
42037;DHT22;30340;52.004;5.908;2023-06-19T05:34:53;21.90;73.90
42037;DHT22;30340;52.004;5.908;2023-06-19T05:37:18;21.80;74.10
42037;DHT22;30340;52.004;5.908;2023-06-19T05:39:44;21.80;74.30
42037;DHT22;30340;52.004;5.908;2023-06-19T05:42:09;21.90;74.30
42037;DHT22;30340;52.004;5.908;2023-06-19T05:44:35;21.90;74.10
42037;DHT22;30340;52.004;5.908;2023-06-19T05:47:00;22.00;73.90
42037;DHT22;30340;52.004;5.908;2023-06-19T05:49:26;22.10;74.00
42037;DHT22;30340;52.004;5.908;2023-06-19T05:51:51;22.00;74.30
42037;DHT22;30340;52.004;5.908;2023-06-19T05:54:17;22.00;74.30
42037;DHT22;30340;52.004;5.908;2023-06-19T05:56:43;22.10;74.30
42037;DHT22;30340;52.004;5.908;2023-06-19T05:59:08;22.10;74.60
42037;DHT22;30340;52.004;5.908;2023-06-19T06:01:34;22.20;74.50
42037;DHT22;30340;52.004;5.908;2023-06-19T06:03:59;22.20;74.30
42037;DHT22;30340;52.004;5.908;2023-06-19T06:06:26;22.10;74.20
42037;DHT22;30340;52.004;5.908;2023-06-19T06:08:53;22.20;74.10
42037;DHT22;30340;52.004;5.908;2023-06-19T06:11:20;22.30;73.80
42037;DHT22;30340;52.004;5.908;2023-06-19T06:13:45;22.40;73.70
42037;DHT22;30340;52.004;5.908;2023-06-19T06:16:11;22.40;73.50
42037;DHT22;30340;52.004;5.908;2023-06-19T06:18:40;22.40;73.30
42037;DHT22;30340;52.004;5.908;2023-06-19T06:21:05;22.50;73.20
42037;DHT22;30340;52.004;5.908;2023-06-19T06:23:31;22.50;73.20
42037;DHT22;30340;52.004;5.908;2023-06-19T06:25:57;22.40;73.30
42037;DHT22;30340;52.004;5.908;2023-06-19T06:28:27;22.40;73.50
42037;DHT22;30340;52.004;5.908;2023-06-19T06:30:53;22.50;73.30
42037;DHT22;30340;52.004;5.908;2023-06-19T06:33:19;22.50;73.20
42037;DHT22;30340;52.004;5.908;2023-06-19T06:35:44;22.50;73.10
42037;DHT22;30340;52.004;5.908;2023-06-19T06:38:10;22.40;73.10
42037;DHT22;30340;52.004;5.908;2023-06-19T06:40:36;22.40;73.20
42037;DHT22;30340;52.004;5.908;2023-06-19T06:43:01;22.40;73.20
42037;DHT22;30340;52.004;5.908;2023-06-19T06:45:27;22.40;73.00
42037;DHT22;30340;52.004;5.908;2023-06-19T06:47:53;22.40;72.90
42037;DHT22;30340;52.004;5.908;2023-06-19T06:50:18;22.30;72.90
42037;DHT22;30340;52.004;5.908;2023-06-19T06:52:44;22.30;72.90
42037;DHT22;30340;52.004;5.908;2023-06-19T06:55:09;22.20;72.80
42037;DHT22;30340;52.004;5.908;2023-06-19T06:57:35;22.20;72.80
42037;DHT22;30340;52.004;5.908;2023-06-19T07:00:01;22.20;72.60
42037;DHT22;30340;52.004;5.908;2023-06-19T07:02:28;22.10;72.50
42037;DHT22;30340;52.004;5.908;2023-06-19T07:04:54;22.10;72.30
42037;DHT22;30340;52.004;5.908;2023-06-19T07:07:20;22.20;72.00
42037;DHT22;30340;52.004;5.908;2023-06-19T07:09:46;22.20;71.70
42037;DHT22;30340;52.004;5.908;2023-06-19T07:12:12;22.30;71.40
42037;DHT22;30340;52.004;5.908;2023-06-19T07:14:38;22.30;71.30
42037;DHT22;30340;52.004;5.908;2023-06-19T07:17:03;22.30;71.10
42037;DHT22;30340;52.004;5.908;2023-06-19T07:19:32;22.30;71.00
42037;DHT22;30340;52.004;5.908;2023-06-19T07:21:58;22.30;70.90
42037;DHT22;30340;52.004;5.908;2023-06-19T07:24:24;22.40;70.80
42037;DHT22;30340;52.004;5.908;2023-06-19T07:26:50;22.40;70.70
42037;DHT22;30340;52.004;5.908;2023-06-19T07:29:15;22.50;70.40
42037;DHT22;30340;52.004;5.908;2023-06-19T07:31:41;22.60;70.20
42037;DHT22;30340;52.004;5.908;2023-06-19T07:34:09;22.70;69.80
42037;DHT22;30340;52.004;5.908;2023-06-19T07:36:34;22.90;69.20
42037;DHT22;30340;52.004;5.908;2023-06-19T07:39:00;23.30;68.40
42037;DHT22;30340;52.004;5.908;2023-06-19T07:41:26;23.60;67.50
42037;DHT22;30340;52.004;5.908;2023-06-19T07:43:52;23.90;66.10
42037;DHT22;30340;52.004;5.908;2023-06-19T07:46:17;24.10;65.00
42037;DHT22;30340;52.004;5.908;2023-06-19T07:48:43;24.30;64.40
42037;DHT22;30340;52.004;5.908;2023-06-19T07:51:08;24.40;63.60
42037;DHT22;30340;52.004;5.908;2023-06-19T07:53:35;24.50;63.30
42037;DHT22;30340;52.004;5.908;2023-06-19T07:56:01;24.50;62.60
42037;DHT22;30340;52.004;5.908;2023-06-19T07:58:26;24.30;62.80
42037;DHT22;30340;52.004;5.908;2023-06-19T08:00:52;24.40;62.80
42037;DHT22;30340;52.004;5.908;2023-06-19T08:03:18;24.60;63.10
42037;DHT22;30340;52.004;5.908;2023-06-19T08:05:43;24.60;62.10
42037;DHT22;30340;52.004;5.908;2023-06-19T08:08:12;24.70;61.70
42037;DHT22;30340;52.004;5.908;2023-06-19T08:10:38;24.60;61.10
42037;DHT22;30340;52.004;5.908;2023-06-19T08:13:03;24.80;61.00
42037;DHT22;30340;52.004;5.908;2023-06-19T08:15:29;24.70;60.30
42037;DHT22;30340;52.004;5.908;2023-06-19T08:17:54;24.70;60.50
42037;DHT22;30340;52.004;5.908;2023-06-19T08:20:20;24.70;60.20
42037;DHT22;30340;52.004;5.908;2023-06-19T08:22:46;24.60;60.10
42037;DHT22;30340;52.004;5.908;2023-06-19T08:25:11;24.60;60.30
42037;DHT22;30340;52.004;5.908;2023-06-19T08:27:37;24.60;60.10
42037;DHT22;30340;52.004;5.908;2023-06-19T08:30:03;24.70;59.90
42037;DHT22;30340;52.004;5.908;2023-06-19T08:32:28;24.60;59.70
42037;DHT22;30340;52.004;5.908;2023-06-19T08:34:57;24.50;60.00
42037;DHT22;30340;52.004;5.908;2023-06-19T08:37:22;24.50;60.20
42037;DHT22;30340;52.004;5.908;2023-06-19T08:39:48;24.40;60.00
42037;DHT22;30340;52.004;5.908;2023-06-19T08:42:13;24.30;60.20
42037;DHT22;30340;52.004;5.908;2023-06-19T08:44:39;24.30;60.30
42037;DHT22;30340;52.004;5.908;2023-06-19T08:47:05;24.30;60.30
42037;DHT22;30340;52.004;5.908;2023-06-19T08:49:34;24.30;59.90
42037;DHT22;30340;52.004;5.908;2023-06-19T08:52:04;24.30;59.80
42037;DHT22;30340;52.004;5.908;2023-06-19T08:54:30;24.40;59.80
42037;DHT22;30340;52.004;5.908;2023-06-19T08:56:56;24.60;59.60
42037;DHT22;30340;52.004;5.908;2023-06-19T08:59:25;24.70;59.40
42037;DHT22;30340;52.004;5.908;2023-06-19T09:01:53;24.90;59.30
42037;DHT22;30340;52.004;5.908;2023-06-19T09:04:20;25.10;59.10
42037;DHT22;30340;52.004;5.908;2023-06-19T09:07:07;25.20;58.60
42037;DHT22;30340;52.004;5.908;2023-06-19T09:09:33;25.20;58.30
42037;DHT22;30340;52.004;5.908;2023-06-19T09:12:07;25.20;58.30
42037;DHT22;30340;52.004;5.908;2023-06-19T09:14:34;25.10;58.20
42037;DHT22;30340;52.004;5.908;2023-06-19T09:17:01;25.00;58.40
42037;DHT22;30340;52.004;5.908;2023-06-19T09:19:27;25.00;58.60
42037;DHT22;30340;52.004;5.908;2023-06-19T09:21:53;24.90;58.90
42037;DHT22;30340;52.004;5.908;2023-06-19T09:24:18;25.00;58.80
42037;DHT22;30340;52.004;5.908;2023-06-19T09:26:44;25.00;59.00
42037;DHT22;30340;52.004;5.908;2023-06-19T09:29:16;25.10;58.90
42037;DHT22;30340;52.004;5.908;2023-06-19T09:31:43;25.10;58.60
42037;DHT22;30340;52.004;5.908;2023-06-19T09:34:09;25.20;58.60
42037;DHT22;30340;52.004;5.908;2023-06-19T09:36:35;25.30;58.40
42037;DHT22;30340;52.004;5.908;2023-06-19T09:39:02;25.40;58.20
42037;DHT22;30340;52.004;5.908;2023-06-19T09:41:29;25.60;57.90
42037;DHT22;30340;52.004;5.908;2023-06-19T09:43:56;25.80;57.40
42037;DHT22;30340;52.004;5.908;2023-06-19T09:46:32;25.80;56.90
42037;DHT22;30340;52.004;5.908;2023-06-19T09:49:04;25.80;56.90
42037;DHT22;30340;52.004;5.908;2023-06-19T09:51:33;25.80;56.80
42037;DHT22;30340;52.004;5.908;2023-06-19T09:54:02;25.60;56.90
42037;DHT22;30340;52.004;5.908;2023-06-19T09:56:30;25.50;57.10
42037;DHT22;30340;52.004;5.908;2023-06-19T09:58:57;25.50;57.30
42037;DHT22;30340;52.004;5.908;2023-06-19T10:01:29;25.80;57.50
42037;DHT22;30340;52.004;5.908;2023-06-19T10:04:07;26.00;56.90
42037;DHT22;30340;52.004;5.908;2023-06-19T10:06:46;25.90;56.60
42037;DHT22;30340;52.004;5.908;2023-06-19T10:09:14;25.80;56.50
42037;DHT22;30340;52.004;5.908;2023-06-19T10:11:50;25.80;56.50
42037;DHT22;30340;52.004;5.908;2023-06-19T10:14:21;25.90;56.40
42037;DHT22;30340;52.004;5.908;2023-06-19T10:16:47;26.10;56.00
42037;DHT22;30340;52.004;5.908;2023-06-19T10:19:17;26.20;55.60
42037;DHT22;30340;52.004;5.908;2023-06-19T10:21:45;26.30;55.20
42037;DHT22;30340;52.004;5.908;2023-06-19T10:24:14;26.40;55.20
42037;DHT22;30340;52.004;5.908;2023-06-19T10:26:40;26.50;54.90
42037;DHT22;30340;52.004;5.908;2023-06-19T10:29:16;26.60;55.00
42037;DHT22;30340;52.004;5.908;2023-06-19T10:31:42;26.70;54.90
42037;DHT22;30340;52.004;5.908;2023-06-19T10:34:09;26.80;54.60
42037;DHT22;30340;52.004;5.908;2023-06-19T10:36:35;26.80;54.20
42037;DHT22;30340;52.004;5.908;2023-06-19T10:39:01;26.70;54.10
42037;DHT22;30340;52.004;5.908;2023-06-19T10:41:26;26.60;54.10
42037;DHT22;30340;52.004;5.908;2023-06-19T10:43:56;26.70;54.20
42037;DHT22;30340;52.004;5.908;2023-06-19T10:46:23;26.80;54.10
42037;DHT22;30340;52.004;5.908;2023-06-19T10:48:50;26.80;53.70
42037;DHT22;30340;52.004;5.908;2023-06-19T10:51:19;26.80;53.70
42037;DHT22;30340;52.004;5.908;2023-06-19T10:53:45;27.00;53.60
42037;DHT22;30340;52.004;5.908;2023-06-19T10:56:10;27.10;53.40
42037;DHT22;30340;52.004;5.908;2023-06-19T10:58:36;27.10;53.40
42037;DHT22;30340;52.004;5.908;2023-06-19T11:01:01;27.10;53.20
42037;DHT22;30340;52.004;5.908;2023-06-19T11:03:27;27.10;53.10
42037;DHT22;30340;52.004;5.908;2023-06-19T11:05:52;27.30;52.70
42037;DHT22;30340;52.004;5.908;2023-06-19T11:08:19;27.40;52.40
42037;DHT22;30340;52.004;5.908;2023-06-19T11:10:45;27.40;52.20
42037;DHT22;30340;52.004;5.908;2023-06-19T11:13:15;27.40;52.30
42037;DHT22;30340;52.004;5.908;2023-06-19T11:15:42;27.40;52.10
42037;DHT22;30340;52.004;5.908;2023-06-19T11:18:08;27.50;52.10
42037;DHT22;30340;52.004;5.908;2023-06-19T11:20:50;27.70;51.80
42037;DHT22;30340;52.004;5.908;2023-06-19T11:23:17;28.00;51.30
42037;DHT22;30340;52.004;5.908;2023-06-19T11:25:49;28.00;51.60
42037;DHT22;30340;52.004;5.908;2023-06-19T11:28:16;28.00;50.60
42037;DHT22;30340;52.004;5.908;2023-06-19T11:30:48;27.90;50.60
42037;DHT22;30340;52.004;5.908;2023-06-19T11:33:21;28.00;50.60
42037;DHT22;30340;52.004;5.908;2023-06-19T11:35:50;28.00;50.50
42037;DHT22;30340;52.004;5.908;2023-06-19T11:38:18;28.00;50.50
42037;DHT22;30340;52.004;5.908;2023-06-19T11:40:44;28.10;50.40
42037;DHT22;30340;52.004;5.908;2023-06-19T11:43:11;28.10;50.10
42037;DHT22;30340;52.004;5.908;2023-06-19T11:45:49;28.10;49.90
42037;DHT22;30340;52.004;5.908;2023-06-19T11:48:24;28.30;50.00
42037;DHT22;30340;52.004;5.908;2023-06-19T11:50:50;28.40;49.80
42037;DHT22;30340;52.004;5.908;2023-06-19T11:53:17;28.50;49.10
42037;DHT22;30340;52.004;5.908;2023-06-19T11:55:43;28.60;49.10
42037;DHT22;30340;52.004;5.908;2023-06-19T11:58:09;28.60;49.00
42037;DHT22;30340;52.004;5.908;2023-06-19T12:00:36;28.60;49.20
42037;DHT22;30340;52.004;5.908;2023-06-19T12:03:01;28.60;48.70
42037;DHT22;30340;52.004;5.908;2023-06-19T12:05:27;28.60;48.40
42037;DHT22;30340;52.004;5.908;2023-06-19T12:07:53;28.70;48.50
42037;DHT22;30340;52.004;5.908;2023-06-19T12:10:18;28.80;48.40
42037;DHT22;30340;52.004;5.908;2023-06-19T12:12:44;28.90;48.30
42037;DHT22;30340;52.004;5.908;2023-06-19T12:15:09;29.10;47.20
42037;DHT22;30340;52.004;5.908;2023-06-19T12:17:35;29.10;46.70
42037;DHT22;30340;52.004;5.908;2023-06-19T12:20:04;29.20;46.60
42037;DHT22;30340;52.004;5.908;2023-06-19T12:22:32;29.20;46.50
42037;DHT22;30340;52.004;5.908;2023-06-19T12:24:58;29.40;46.70
42037;DHT22;30340;52.004;5.908;2023-06-19T12:27:24;29.40;45.80
42037;DHT22;30340;52.004;5.908;2023-06-19T12:29:50;29.40;45.60
42037;DHT22;30340;52.004;5.908;2023-06-19T12:32:15;29.30;45.00
42037;DHT22;30340;52.004;5.908;2023-06-19T12:34:41;29.50;44.70
42037;DHT22;30340;52.004;5.908;2023-06-19T12:37:14;29.70;44.60
42037;DHT22;30340;52.004;5.908;2023-06-19T12:39:41;29.80;44.80
42037;DHT22;30340;52.004;5.908;2023-06-19T12:42:07;30.10;44.30
42037;DHT22;30340;52.004;5.908;2023-06-19T12:44:32;30.10;43.50
42037;DHT22;30340;52.004;5.908;2023-06-19T12:46:58;30.10;43.20
42037;DHT22;30340;52.004;5.908;2023-06-19T12:49:25;30.30;43.50
42037;DHT22;30340;52.004;5.908;2023-06-19T12:51:51;30.50;42.80
42037;DHT22;30340;52.004;5.908;2023-06-19T12:54:17;30.40;41.60
42037;DHT22;30340;52.004;5.908;2023-06-19T12:56:44;30.30;42.00
42037;DHT22;30340;52.004;5.908;2023-06-19T12:59:09;30.50;42.00
42037;DHT22;30340;52.004;5.908;2023-06-19T13:01:35;30.60;42.30
42037;DHT22;30340;52.004;5.908;2023-06-19T13:04:01;30.70;42.40
42037;DHT22;30340;52.004;5.908;2023-06-19T13:06:26;30.80;42.20
42037;DHT22;30340;52.004;5.908;2023-06-19T13:08:52;31.00;41.60
42037;DHT22;30340;52.004;5.908;2023-06-19T13:11:18;31.10;41.40
42037;DHT22;30340;52.004;5.908;2023-06-19T13:13:43;31.20;41.20
42037;DHT22;30340;52.004;5.908;2023-06-19T13:16:09;31.30;41.00
42037;DHT22;30340;52.004;5.908;2023-06-19T13:18:37;31.30;40.70
42037;DHT22;30340;52.004;5.908;2023-06-19T13:21:02;31.30;40.60
42037;DHT22;30340;52.004;5.908;2023-06-19T13:23:28;31.40;40.80
42037;DHT22;30340;52.004;5.908;2023-06-19T13:25:56;31.40;40.60
42037;DHT22;30340;52.004;5.908;2023-06-19T13:28:22;31.40;40.90
42037;DHT22;30340;52.004;5.908;2023-06-19T13:30:47;31.40;40.50
42037;DHT22;30340;52.004;5.908;2023-06-19T13:33:13;31.40;40.70
42037;DHT22;30340;52.004;5.908;2023-06-19T13:35:38;31.60;41.00
42037;DHT22;30340;52.004;5.908;2023-06-19T13:38:04;31.60;41.00
42037;DHT22;30340;52.004;5.908;2023-06-19T13:40:29;31.70;41.10
42037;DHT22;30340;52.004;5.908;2023-06-19T13:42:55;31.60;41.20
42037;DHT22;30340;52.004;5.908;2023-06-19T13:45:21;31.50;41.10
42037;DHT22;30340;52.004;5.908;2023-06-19T13:47:47;31.60;41.00
42037;DHT22;30340;52.004;5.908;2023-06-19T13:50:12;31.60;40.80
42037;DHT22;30340;52.004;5.908;2023-06-19T13:52:43;31.80;40.70
42037;DHT22;30340;52.004;5.908;2023-06-19T13:55:09;31.60;40.20
42037;DHT22;30340;52.004;5.908;2023-06-19T13:57:34;31.70;39.90
42037;DHT22;30340;52.004;5.908;2023-06-19T14:00:02;31.70;39.90
42037;DHT22;30340;52.004;5.908;2023-06-19T14:02:28;31.70;40.10
42037;DHT22;30340;52.004;5.908;2023-06-19T14:04:54;31.60;40.20
42037;DHT22;30340;52.004;5.908;2023-06-19T14:07:19;31.60;40.10
42037;DHT22;30340;52.004;5.908;2023-06-19T14:09:48;31.60;40.00
42037;DHT22;30340;52.004;5.908;2023-06-19T14:12:14;31.60;40.00
42037;DHT22;30340;52.004;5.908;2023-06-19T14:14:39;31.80;39.90
42037;DHT22;30340;52.004;5.908;2023-06-19T14:17:05;31.70;39.80
42037;DHT22;30340;52.004;5.908;2023-06-19T14:19:31;31.90;39.90
42037;DHT22;30340;52.004;5.908;2023-06-19T14:21:57;31.80;39.70
42037;DHT22;30340;52.004;5.908;2023-06-19T14:24:22;31.70;39.80
42037;DHT22;30340;52.004;5.908;2023-06-19T14:26:49;31.70;39.80
42037;DHT22;30340;52.004;5.908;2023-06-19T14:29:15;31.70;39.80
42037;DHT22;30340;52.004;5.908;2023-06-19T14:31:44;31.70;39.60
42037;DHT22;30340;52.004;5.908;2023-06-19T14:34:09;31.60;39.80
42037;DHT22;30340;52.004;5.908;2023-06-19T14:36:37;31.80;39.80
42037;DHT22;30340;52.004;5.908;2023-06-19T14:39:03;31.80;39.60
42037;DHT22;30340;52.004;5.908;2023-06-19T14:41:28;31.90;39.60
42037;DHT22;30340;52.004;5.908;2023-06-19T14:43:54;32.00;39.50
42037;DHT22;30340;52.004;5.908;2023-06-19T14:46:19;32.00;39.30
42037;DHT22;30340;52.004;5.908;2023-06-19T14:48:45;31.80;39.30
42037;DHT22;30340;52.004;5.908;2023-06-19T14:51:10;31.80;39.50
42037;DHT22;30340;52.004;5.908;2023-06-19T14:53:37;31.80;39.60
42037;DHT22;30340;52.004;5.908;2023-06-19T14:56:03;31.90;39.50
42037;DHT22;30340;52.004;5.908;2023-06-19T14:58:28;32.00;39.40
42037;DHT22;30340;52.004;5.908;2023-06-19T15:00:54;32.00;39.40
42037;DHT22;30340;52.004;5.908;2023-06-19T15:03:20;32.10;39.40
42037;DHT22;30340;52.004;5.908;2023-06-19T15:05:45;32.10;39.20
42037;DHT22;30340;52.004;5.908;2023-06-19T15:08:11;32.00;39.20
42037;DHT22;30340;52.004;5.908;2023-06-19T15:10:37;31.90;39.10
42037;DHT22;30340;52.004;5.908;2023-06-19T15:13:03;31.90;39.30
42037;DHT22;30340;52.004;5.908;2023-06-19T15:15:28;31.90;39.20
42037;DHT22;30340;52.004;5.908;2023-06-19T15:17:54;31.80;39.20
42037;DHT22;30340;52.004;5.908;2023-06-19T15:20:19;31.70;39.90
42037;DHT22;30340;52.004;5.908;2023-06-19T15:22:46;31.70;39.40
42037;DHT22;30340;52.004;5.908;2023-06-19T15:25:12;31.70;39.50